createdAt,value
2022-12-26T00:00:54.533Z,100900.31
2022-12-26T00:03:28.050Z,100890.59
2022-12-26T00:06:02.633Z,100903.59
2022-12-26T00:08:35.613Z,100900.84
2022-12-26T00:11:09.180Z,100894.97
2022-12-26T00:13:50.451Z,100901.88
2022-12-26T00:16:26.908Z,100912.97
2022-12-26T00:19:00.205Z,100919.97
2022-12-26T00:21:35.571Z,100919.69
2022-12-26T00:24:12.020Z,100920.25
2022-12-26T00:26:48.256Z,100914.41
2022-12-26T00:29:22.901Z,100910.94
2022-12-26T00:31:58.174Z,100910.94
2022-12-26T00:34:31.473Z,100914.94
2022-12-26T00:37:06.291Z,100917.66
2022-12-26T00:39:42.031Z,100918.47
2022-12-26T00:42:15.128Z,100912.97
2022-12-26T00:44:48.327Z,100902.72
2022-12-26T00:47:21.899Z,100901.13
2022-12-26T00:50:13.707Z,100910.13
2022-12-26T00:52:49.688Z,100906.59
2022-12-26T00:55:23.052Z,100908.50
2022-12-26T00:57:56.438Z,100903.13
2022-12-26T01:00:29.768Z,100902.72
2022-12-26T01:03:03.345Z,100898.69
2022-12-26T01:05:42.038Z,100896.97
2022-12-26T01:08:22.470Z,100894.44
2022-12-26T01:10:57.621Z,100891.75
2022-12-26T01:13:42.307Z,100903.84
2022-12-26T01:16:15.314Z,100891.75
2022-12-26T01:18:48.480Z,100883.16
2022-12-26T01:21:22.304Z,100889.34
2022-12-26T01:23:59.331Z,100880.72
2022-12-26T01:26:32.755Z,100891.63
2022-12-26T01:29:06.323Z,100900.28
2022-12-26T01:31:39.991Z,100900.22
2022-12-26T01:34:13.397Z,100899.00
2022-12-26T01:36:46.794Z,100905.69
2022-12-26T01:39:21.934Z,100899.41
2022-12-26T01:41:55.152Z,100895.53
2022-12-26T01:44:59.119Z,100908.13
2022-12-26T01:47:43.359Z,100905.69
2022-12-26T01:50:28.959Z,100903.75
2022-12-26T01:53:07.184Z,100897.16
2022-12-26T01:55:42.757Z,100889.94
2022-12-26T01:58:21.410Z,100887.59
2022-12-26T02:00:55.745Z,100897.84
2022-12-26T02:03:46.492Z,100887.38
2022-12-26T02:06:19.563Z,100885.31
2022-12-26T02:08:52.500Z,100894.69
2022-12-26T02:11:34.011Z,100896.63
2022-12-26T02:14:08.916Z,100898.56
2022-12-26T02:16:43.380Z,100900.88
2022-12-26T02:19:30.303Z,100886.03
2022-12-26T02:22:25.719Z,100886.13
2022-12-26T02:25:27.805Z,100882.38
2022-12-26T02:28:30.349Z,100873.59
2022-12-26T02:31:10.600Z,100875.38
2022-12-26T02:34:02.711Z,100878.53
2022-12-26T02:36:48.253Z,100884.69
2022-12-26T02:39:43.580Z,100894.38
2022-12-26T02:42:29.716Z,100896.16
2022-12-26T02:45:25.316Z,100893.81
2022-12-26T02:48:08.415Z,100895.03
2022-12-26T02:51:17.164Z,100888.84
2022-12-26T02:54:22.997Z,100889.81
2022-12-26T02:57:21.686Z,100902.22
2022-12-26T03:00:17.603Z,100892.69
2022-12-26T03:03:12.485Z,100905.19
2022-12-26T03:06:15.730Z,100911.25
2022-12-26T03:09:11.324Z,100906.81
2022-12-26T03:12:04.496Z,100912.34
2022-12-26T03:14:45.095Z,100890.84
2022-12-26T03:17:29.506Z,100895.72
2022-12-26T03:20:07.221Z,100895.25
2022-12-26T03:22:45.000Z,100874.13
2022-12-26T03:25:43.790Z,100870.34
2022-12-26T03:28:17.137Z,100871.06
2022-12-26T03:30:49.998Z,100868.03
2022-12-26T03:33:43.551Z,100877.69
2022-12-26T03:36:26.424Z,100881.31
2022-12-26T03:39:10.735Z,100867.03
2022-12-26T03:42:11.618Z,100866.91
2022-12-26T03:45:11.423Z,100881.84
2022-12-26T03:48:08.986Z,100881.19
2022-12-26T03:51:04.162Z,100897.34
2022-12-26T03:54:01.965Z,100890.09
2022-12-26T03:56:59.021Z,100881.03
2022-12-26T04:00:05.929Z,100883.47
2022-12-26T04:03:06.201Z,100890.72
2022-12-26T04:06:01.467Z,100881.88
2022-12-26T04:08:59.917Z,100889.56
2022-12-26T04:11:52.129Z,100892.91
2022-12-26T04:15:02.606Z,100899.06
2022-12-26T04:18:01.167Z,100915.53
2022-12-26T04:20:46.101Z,100913.03
2022-12-26T04:23:41.736Z,100911.16
2022-12-26T04:26:40.200Z,100905.09
2022-12-26T04:29:30.999Z,100915.63
2022-12-26T04:32:29.964Z,100916.63
2022-12-26T04:35:24.234Z,100902.03
2022-12-26T04:38:16.789Z,100906.13
2022-12-26T04:41:10.699Z,100890.50
2022-12-26T04:44:03.169Z,100886.91
2022-12-26T04:46:39.097Z,100867.31
2022-12-26T04:49:33.280Z,100858.53
2022-12-26T04:52:09.373Z,100871.19
2022-12-26T04:54:44.427Z,100866.22
2022-12-26T04:57:17.508Z,100876.47
2022-12-26T04:59:50.597Z,100870.47
2022-12-26T05:02:41.292Z,100876.75
2022-12-26T05:05:33.617Z,100872.06
2022-12-26T05:08:24.542Z,100869.31
2022-12-26T05:10:58.020Z,100865.06
2022-12-26T05:13:30.948Z,100876.31
2022-12-26T05:16:22.019Z,100874.72
2022-12-26T05:19:12.867Z,100874.72
2022-12-26T05:22:10.149Z,100868.53
2022-12-26T05:25:02.340Z,100867.00
2022-12-26T05:27:55.932Z,100863.34
2022-12-26T05:30:28.638Z,100859.16
2022-12-26T05:33:19.259Z,100862.50
2022-12-26T05:35:52.182Z,100856.44
2022-12-26T05:38:26.457Z,100854.72
2022-12-26T05:40:59.242Z,100866.66
2022-12-26T05:43:32.280Z,100869.59
2022-12-26T05:46:05.604Z,100867.09
2022-12-26T05:48:38.634Z,100863.63
2022-12-26T05:51:12.043Z,100858.66
2022-12-26T05:53:48.384Z,100866.41
2022-12-26T05:56:21.994Z,100872.34
2022-12-26T05:58:56.009Z,100868.03
2022-12-26T06:01:31.118Z,100871.13
2022-12-26T06:04:04.881Z,100876.91
2022-12-26T06:06:37.820Z,100873.38
2022-12-26T06:09:12.342Z,100873.88
2022-12-26T06:11:48.943Z,100884.44
2022-12-26T06:14:22.615Z,100879.19
2022-12-26T06:16:57.314Z,100874.97
2022-12-26T06:19:30.590Z,100882.38
2022-12-26T06:22:03.910Z,100881.38
2022-12-26T06:24:38.590Z,100870.41
2022-12-26T06:27:12.148Z,100858.84
2022-12-26T06:29:45.342Z,100870.56
2022-12-26T06:32:18.587Z,100874.31
2022-12-26T06:34:53.697Z,100874.59
2022-12-26T06:37:26.928Z,100872.28
2022-12-26T06:40:01.709Z,100875.31
2022-12-26T06:42:34.846Z,100869.56
2022-12-26T06:45:08.701Z,100875.41
2022-12-26T06:47:44.346Z,100884.81
2022-12-26T06:50:17.771Z,100883.25
2022-12-26T06:52:51.436Z,100885.41
2022-12-26T06:55:26.081Z,100877.84
2022-12-26T06:57:59.453Z,100884.69
2022-12-26T07:00:32.458Z,100879.22
2022-12-26T07:03:05.737Z,100869.41
2022-12-26T07:05:39.967Z,100868.84
2022-12-26T07:08:14.777Z,100877.22
2022-12-26T07:10:49.227Z,100877.13
2022-12-26T07:13:22.696Z,100883.16
2022-12-26T07:15:55.782Z,100888.06
2022-12-26T07:18:28.827Z,100876.75
2022-12-26T07:21:01.859Z,100893.16
2022-12-26T07:23:34.702Z,100889.00
2022-12-26T07:26:10.590Z,100911.16
2022-12-26T07:28:44.833Z,100906.72
2022-12-26T07:31:18.905Z,100904.25
2022-12-26T07:33:55.615Z,100919.09
2022-12-26T07:36:30.210Z,100914.41
2022-12-26T07:39:03.863Z,100916.78
2022-12-26T07:41:59.550Z,100914.94
2022-12-26T07:44:34.385Z,100920.81
2022-12-26T07:47:07.612Z,100924.28
2022-12-26T07:49:41.189Z,100914.28
2022-12-26T07:52:14.483Z,100932.47
2022-12-26T07:54:48.100Z,100945.03
2022-12-26T07:57:48.317Z,100990.44
2022-12-26T08:00:24.533Z,100991.19
2022-12-26T08:03:04.749Z,100986.66
2022-12-26T08:05:40.343Z,100992.94
2022-12-26T08:08:15.042Z,101002.16
2022-12-26T08:10:50.989Z,101004.81
2022-12-26T08:13:25.673Z,101013.81
2022-12-26T08:15:59.181Z,101010.75
2022-12-26T08:18:32.847Z,101008.63
2022-12-26T08:21:06.242Z,101011.22
2022-12-26T08:23:39.897Z,101013.78
2022-12-26T08:26:20.700Z,101021.13
2022-12-26T08:29:02.171Z,101025.00
2022-12-26T08:31:35.322Z,101047.06
2022-12-26T08:34:08.641Z,101041.88
2022-12-26T08:36:42.158Z,101042.38
2022-12-26T08:39:15.215Z,101054.84
2022-12-26T08:41:50.407Z,101071.78
2022-12-26T08:44:30.411Z,101064.28
2022-12-26T08:47:04.522Z,101095.47
2022-12-26T08:49:37.941Z,101102.13
2022-12-26T08:52:10.775Z,101109.16
2022-12-26T08:54:44.180Z,101127.31
2022-12-26T08:57:18.689Z,101142.00
2022-12-26T08:59:53.040Z,101149.28
2022-12-26T09:02:26.719Z,101153.81
2022-12-26T09:04:59.809Z,101160.19
2022-12-26T09:07:33.233Z,101167.06
2022-12-26T09:10:07.024Z,101175.72
2022-12-26T09:12:40.221Z,101181.97
2022-12-26T09:15:14.313Z,101195.13
2022-12-26T09:17:47.789Z,101197.97
2022-12-26T09:20:20.629Z,101215.19
2022-12-26T09:22:54.281Z,101227.13
2022-12-26T09:25:27.389Z,101234.44
2022-12-26T09:28:02.871Z,101242.94
2022-12-26T09:30:38.009Z,101245.31
2022-12-26T09:33:10.831Z,101252.31
2022-12-26T09:35:43.981Z,101259.38
2022-12-26T09:38:16.865Z,101266.78
2022-12-26T09:41:03.360Z,101270.69
2022-12-26T09:43:54.292Z,101279.75
2022-12-26T09:46:33.561Z,101280.91
2022-12-26T09:49:12.377Z,101289.91
2022-12-26T09:51:49.559Z,101291.31
2022-12-26T09:54:32.461Z,101290.28
2022-12-26T09:57:14.748Z,101292.09
2022-12-26T09:59:54.199Z,101301.41
2022-12-26T10:02:29.174Z,101306.25
2022-12-26T10:05:02.175Z,101313.56
2022-12-26T10:07:39.648Z,101302.97
2022-12-26T10:10:15.149Z,101295.56
2022-12-26T10:12:57.839Z,101289.66
2022-12-26T10:15:39.412Z,101295.75
2022-12-26T10:18:36.120Z,101297.50
2022-12-26T10:21:23.383Z,101317.03
2022-12-26T10:24:01.753Z,101316.22
2022-12-26T10:26:37.895Z,101339.72
2022-12-26T10:29:20.126Z,101341.66
2022-12-26T10:31:57.407Z,101344.66
2022-12-26T10:34:36.848Z,101361.50
2022-12-26T10:37:17.285Z,101360.63
2022-12-26T10:39:54.727Z,101369.28
2022-12-26T10:42:31.748Z,101371.66
2022-12-26T10:45:16.386Z,101371.31
2022-12-26T10:47:51.797Z,101377.94
2022-12-26T10:50:30.204Z,101377.94
2022-12-26T10:53:06.484Z,101374.03
2022-12-26T10:55:39.302Z,101374.03
2022-12-26T10:58:17.837Z,101383.53
2022-12-26T11:00:50.949Z,101383.53
2022-12-26T11:03:24.248Z,101385.00
2022-12-26T11:06:08.982Z,101396.31
2022-12-26T11:08:50.298Z,101403.91
2022-12-26T11:11:25.973Z,101401.88
2022-12-26T11:14:05.324Z,101408.59
2022-12-26T11:16:41.281Z,101412.13
2022-12-26T11:19:28.384Z,101401.41
2022-12-26T11:22:23.866Z,101408.84
2022-12-26T11:25:28.268Z,101422.44
2022-12-26T11:28:20.370Z,101414.31
2022-12-26T11:30:56.422Z,101428.78
2022-12-26T11:33:34.787Z,101437.22
2022-12-26T11:36:12.790Z,101439.50
2022-12-26T11:38:51.082Z,101442.84
2022-12-26T11:41:41.652Z,101449.69
2022-12-26T11:44:20.111Z,101440.00
2022-12-26T11:46:58.270Z,101440.44
2022-12-26T11:49:35.790Z,101449.47
2022-12-26T11:52:37.559Z,101441.34
2022-12-26T11:55:29.505Z,101461.56
2022-12-26T11:58:15.965Z,101464.19
2022-12-26T12:01:08.101Z,101460.91
2022-12-26T12:03:48.938Z,101461.22
2022-12-26T12:06:47.252Z,101462.84
2022-12-26T12:09:28.330Z,101463.16
2022-12-26T12:12:11.687Z,101459.91
2022-12-26T12:14:58.071Z,101460.47
2022-12-26T12:17:39.554Z,101460.81
2022-12-26T12:20:32.592Z,101457.63
2022-12-26T12:23:27.437Z,101471.75
2022-12-26T12:26:10.298Z,101470.63
2022-12-26T12:29:12.997Z,101475.53
2022-12-26T12:32:01.360Z,101472.81
2022-12-26T12:34:52.906Z,101474.88
2022-12-26T12:37:36.349Z,101479.31
2022-12-26T12:40:26.329Z,101474.09
2022-12-26T12:43:11.292Z,101484.88
2022-12-26T12:45:52.206Z,101487.53
2022-12-26T12:48:43.043Z,101495.97
2022-12-26T12:51:28.165Z,101495.00
2022-12-26T12:54:22.320Z,101505.31
2022-12-26T12:57:06.212Z,101507.44
2022-12-26T12:59:48.855Z,101507.31
2022-12-26T13:02:29.426Z,101513.81
2022-12-26T13:05:15.952Z,101512.59
2022-12-26T13:07:55.799Z,101511.53
2022-12-26T13:10:33.133Z,101511.97
2022-12-26T13:13:16.995Z,101523.72
2022-12-26T13:15:53.980Z,101522.72
2022-12-26T13:18:32.533Z,101524.88
2022-12-26T13:21:11.558Z,101524.16
2022-12-26T13:24:05.771Z,101516.41
2022-12-26T13:26:42.518Z,101533.16
2022-12-26T13:29:20.276Z,101529.16
2022-12-26T13:31:53.904Z,101540.56
2022-12-26T13:34:27.630Z,101538.13
2022-12-26T13:37:02.566Z,101543.00
2022-12-26T13:39:41.487Z,101547.13
2022-12-26T13:42:38.743Z,101542.00
2022-12-26T13:45:58.095Z,101543.25
2022-12-26T13:49:08.284Z,101543.00
2022-12-26T13:51:50.472Z,101548.94
2022-12-26T13:54:27.393Z,101550.75
2022-12-26T13:57:28.186Z,101556.88
2022-12-26T14:00:09.536Z,101551.91
2022-12-26T14:03:19.496Z,101559.16
2022-12-26T14:06:27.280Z,101564.72
2022-12-26T14:09:21.671Z,101569.97
2022-12-26T14:12:25.586Z,101574.63
2022-12-26T14:15:09.767Z,101573.16
2022-12-26T14:17:56.586Z,101577.81
2022-12-26T14:20:41.178Z,101579.41
2022-12-26T14:23:30.729Z,101580.91
2022-12-26T14:26:08.959Z,101586.91
2022-12-26T14:28:56.439Z,101598.09
2022-12-26T14:31:38.650Z,101596.88
2022-12-26T14:34:24.526Z,101606.22
2022-12-26T14:37:02.812Z,101615.66
2022-12-26T14:39:45.569Z,101607.28
2022-12-26T14:42:42.029Z,101612.34
2022-12-26T14:45:41.820Z,101608.22
2022-12-26T14:48:51.837Z,101619.16
2022-12-26T14:51:47.017Z,101612.09
2022-12-26T14:54:38.197Z,101611.16
2022-12-26T14:57:48.686Z,101616.75
2022-12-26T15:00:38.294Z,101618.69
2022-12-26T15:03:50.273Z,101607.81
2022-12-26T15:06:52.383Z,101620.03
2022-12-26T15:09:51.294Z,101629.28
2022-12-26T15:13:01.823Z,101620.03
2022-12-26T15:15:46.041Z,101619.53
2022-12-26T15:18:51.735Z,101624.34
2022-12-26T15:21:49.611Z,101623.28
2022-12-26T15:25:18.204Z,101621.81
2022-12-26T15:28:11.994Z,101628.66
2022-12-26T15:31:14.199Z,101630.84
2022-12-26T15:33:53.791Z,101632.66
2022-12-26T15:36:34.970Z,101631.38
2022-12-26T15:39:22.903Z,101637.31
2022-12-26T15:42:14.264Z,101646.97
2022-12-26T15:44:57.236Z,101648.56
2022-12-26T15:47:38.888Z,101663.34
2022-12-26T15:50:25.448Z,101655.34
2022-12-26T15:53:12.008Z,101651.97
2022-12-26T15:56:05.348Z,101653.72
2022-12-26T15:58:50.145Z,101663.53
2022-12-26T16:01:41.042Z,101658.72
2022-12-26T16:04:25.005Z,101668.66
2022-12-26T16:07:09.975Z,101673.34
2022-12-26T16:09:45.216Z,101675.84
2022-12-26T16:12:25.451Z,101672.84
2022-12-26T16:15:19.367Z,101679.78
2022-12-26T16:17:52.805Z,101675.97
2022-12-26T16:20:51.272Z,101679.66
2022-12-26T16:23:29.669Z,101669.88
2022-12-26T16:26:02.930Z,101666.00
2022-12-26T16:28:38.630Z,101675.66
2022-12-26T16:31:20.890Z,101672.66
2022-12-26T16:33:56.815Z,101678.88
2022-12-26T16:36:35.808Z,101686.88
2022-12-26T16:39:10.889Z,101676.31
2022-12-26T16:42:00.357Z,101681.41
2022-12-26T16:44:37.985Z,101685.13
2022-12-26T16:47:14.722Z,101682.91
2022-12-26T16:49:48.414Z,101683.53
2022-12-26T16:52:38.087Z,101682.44
2022-12-26T16:55:39.085Z,101696.59
2022-12-26T16:58:19.198Z,101690.78
2022-12-26T17:01:03.244Z,101693.72
2022-12-26T17:03:45.153Z,101699.97
2022-12-26T17:06:24.608Z,101701.25
2022-12-26T17:09:01.708Z,101703.03
2022-12-26T17:11:37.484Z,101708.00
2022-12-26T17:14:19.143Z,101710.31
2022-12-26T17:16:58.777Z,101705.94
2022-12-26T17:19:36.400Z,101714.44
2022-12-26T17:22:23.363Z,101714.13
2022-12-26T17:25:21.390Z,101724.19
2022-12-26T17:28:24.791Z,101725.78
2022-12-26T17:30:57.835Z,101733.22
2022-12-26T17:33:35.012Z,101718.16
2022-12-26T17:39:13.810Z,101722.13
2022-12-26T17:41:52.619Z,101729.22
2022-12-26T17:44:36.549Z,101737.69
2022-12-26T17:47:21.767Z,101732.75
2022-12-26T17:49:55.878Z,101733.06
2022-12-26T17:52:30.609Z,101751.53
2022-12-26T17:55:07.807Z,101746.06
2022-12-26T17:57:40.660Z,101751.34
2022-12-26T18:00:17.397Z,101753.75
2022-12-26T18:02:50.553Z,101754.06
2022-12-26T18:05:23.823Z,101754.72
2022-12-26T18:07:58.238Z,101752.94
2022-12-26T18:10:34.166Z,101757.00
2022-12-26T18:13:10.560Z,101759.34
2022-12-26T18:15:44.344Z,101763.69
2022-12-26T18:18:25.828Z,101754.69
2022-12-26T18:21:01.772Z,101770.28
2022-12-26T18:23:42.430Z,101778.63
2022-12-26T18:26:27.840Z,101783.44
2022-12-26T18:29:00.829Z,101784.06
2022-12-26T18:31:34.019Z,101792.13
2022-12-26T18:34:08.218Z,101786.50
2022-12-26T18:36:43.268Z,101791.28
2022-12-26T18:39:18.333Z,101790.19
2022-12-26T18:41:51.409Z,101796.72
2022-12-26T18:44:24.387Z,101792.91
2022-12-26T18:47:00.023Z,101804.44
2022-12-26T18:49:42.556Z,101806.38
2022-12-26T18:52:17.462Z,101812.47
2022-12-26T18:54:55.488Z,101812.16
2022-12-26T18:57:30.900Z,101812.47
2022-12-26T19:00:06.723Z,101799.00
2022-12-26T19:02:43.413Z,101812.34
2022-12-26T19:05:22.634Z,101820.03
2022-12-26T19:07:57.363Z,101820.50
2022-12-26T19:10:35.051Z,101822.75
2022-12-26T19:13:11.704Z,101814.91
2022-12-26T19:15:50.800Z,101818.91
2022-12-26T19:18:26.010Z,101825.34
2022-12-26T19:21:01.824Z,101829.19
2022-12-26T19:23:36.178Z,101824.03
2022-12-26T19:26:11.595Z,101825.97
2022-12-26T19:28:46.771Z,101822.75
2022-12-26T19:31:23.941Z,101821.81
2022-12-26T19:34:00.539Z,101826.94
2022-12-26T19:36:33.951Z,101825.31
2022-12-26T19:39:09.219Z,101828.03
2022-12-26T19:41:43.870Z,101829.47
2022-12-26T19:44:20.048Z,101827.41
2022-12-26T19:47:12.390Z,101838.94
2022-12-26T19:49:50.675Z,101838.94
2022-12-26T19:52:27.233Z,101843.59
2022-12-26T19:55:00.605Z,101845.88
2022-12-26T19:57:37.039Z,101848.94
2022-12-26T20:00:13.700Z,101844.28
2022-12-26T20:02:50.030Z,101840.72
2022-12-26T20:05:24.746Z,101844.09
2022-12-26T20:07:57.976Z,101846.66
2022-12-26T20:10:31.467Z,101846.34
2022-12-26T20:13:06.073Z,101855.19
2022-12-26T20:15:39.150Z,101854.19
2022-12-26T20:18:15.030Z,101856.91
2022-12-26T20:20:57.239Z,101857.06
2022-12-26T20:23:33.533Z,101853.50
2022-12-26T20:26:12.572Z,101850.94
2022-12-26T20:28:47.534Z,101859.47
2022-12-26T20:31:22.295Z,101862.84
2022-12-26T20:33:57.896Z,101860.91
2022-12-26T20:36:33.760Z,101857.72
2022-12-26T20:39:11.609Z,101862.69
2022-12-26T20:41:47.476Z,101867.34
2022-12-26T20:44:22.464Z,101864.00
2022-12-26T20:46:58.880Z,101864.63
2022-12-26T20:49:34.896Z,101872.00
2022-12-26T20:52:11.750Z,101878.75
2022-12-26T20:54:45.981Z,101886.59
2022-12-26T20:57:19.637Z,101887.72
2022-12-26T20:59:54.285Z,101898.00
2022-12-26T21:02:30.704Z,101897.34
2022-12-26T21:05:04.147Z,101900.75
2022-12-26T21:07:37.526Z,101899.13
2022-12-26T21:10:12.051Z,101894.47
2022-12-26T21:12:52.483Z,101910.38
2022-12-26T21:15:30.034Z,101910.03
2022-12-26T21:18:03.799Z,101912.59
2022-12-26T21:20:42.296Z,101908.25
2022-12-26T21:23:15.830Z,101922.38
2022-12-26T21:25:48.752Z,101920.63
2022-12-26T21:28:21.846Z,101924.78
2022-12-26T21:30:56.300Z,101924.00
2022-12-26T21:33:30.926Z,101924.75
2022-12-26T21:36:09.753Z,101932.31
2022-12-26T21:38:43.144Z,101940.34
2022-12-26T21:41:16.760Z,101932.47
2022-12-26T21:43:50.687Z,101942.56
2022-12-26T21:46:24.906Z,101932.13
2022-12-26T21:48:58.240Z,101947.69
2022-12-26T21:51:32.306Z,101950.59
2022-12-26T21:54:25.087Z,101948.81
2022-12-26T21:56:57.955Z,101959.72
2022-12-26T21:59:48.371Z,101955.69
2022-12-26T22:02:40.270Z,101965.97
2022-12-26T22:05:13.560Z,101975.91
2022-12-26T22:07:46.868Z,101975.63
2022-12-26T22:10:38.328Z,101972.88
2022-12-26T22:13:11.374Z,101976.41
2022-12-26T22:16:02.391Z,101984.41
2022-12-26T22:18:41.203Z,101977.03
2022-12-26T22:21:16.475Z,101983.91
2022-12-26T22:23:50.815Z,101985.25
2022-12-26T22:26:24.968Z,101986.66
2022-12-26T22:28:59.816Z,101979.41
2022-12-26T22:31:34.771Z,101980.22
2022-12-26T22:34:12.230Z,101993.25
2022-12-26T22:36:45.194Z,101992.72
2022-12-26T22:39:17.971Z,101986.81
2022-12-26T22:41:50.839Z,101989.53
2022-12-26T22:44:24.295Z,101996.13
2022-12-26T22:46:57.890Z,101997.56
2022-12-26T22:49:32.100Z,101998.03
2022-12-26T22:52:05.847Z,102003.81
2022-12-26T22:54:41.428Z,102010.06
2022-12-26T22:57:15.218Z,102001.09
2022-12-26T23:02:41.026Z,102004.94
2022-12-26T23:05:15.964Z,101997.91
2022-12-26T23:07:49.543Z,102006.72
2022-12-26T23:10:25.034Z,102011.06
2022-12-26T23:12:58.757Z,102012.00
2022-12-26T23:15:32.049Z,102017.91
2022-12-26T23:18:43.253Z,102017.78
2022-12-26T23:21:39.809Z,102017.13
2022-12-26T23:24:16.142Z,102024.63
2022-12-26T23:26:51.651Z,102021.09
2022-12-26T23:29:43.400Z,102016.78
2022-12-26T23:32:16.499Z,102006.53
2022-12-26T23:34:49.253Z,102014.19
2022-12-26T23:37:23.406Z,102011.31
2022-12-26T23:39:56.280Z,102016.94
2022-12-26T23:42:29.167Z,102022.22
2022-12-26T23:45:01.928Z,102015.84
2022-12-26T23:47:37.591Z,102017.56
2022-12-26T23:50:11.990Z,102013.25
2022-12-26T23:52:46.321Z,102018.69
2022-12-26T23:55:20.426Z,102016.09
2022-12-26T23:57:53.227Z,102019.31
